Main page
METAR-TAF:

METAR-TAF

Airports :

Clines Corners, New Mexico, United States

latitude: 35-00N, longitude: 105-40W, elevation: 7085 ft

Current weather observation

The report was made 8 minutes ago, at 00:53 UTC
Wind 14 mph from the Southwest
Temperature 36°F
Humidity 25%
Pressure 29.75 in. Hg
Visibility: 10 miles
Few clouds at a height of 8500 ft
Broken clouds at a height of 11000 ft

METAR: KCQC 220053Z AUTO 22012KT 10SM FEW085 BKN110 02/M16 A2975 RMK AO2 PK WND 21031/2354 SLP079 T00171156

Time: 18:01 (01:01 UTC)


TAF: missing

Weather observations and forecasts of more than 4000 airports (METAR and TAF reports).

The available stations are represented by yellow and red dots on the map.

Hover mouse over dot to see the name of the station.

Then click to see weather observations and forecasts.

To change the map : click on the green buttons with a black cross to zoom in, on the green button with a dash to zoom out, or on the green arrows for adjacent maps.


METAR-TAF: